Time;durP1;ratioP1;P1;durP2;ratioP2;P2;SDS_P1;SDS_P2;PMS_P1;PMS_P2;Temp;Humidity;BMP_temperature;BMP_pressure;BME280_temperature;BME280_humidity;BME280_pressure;Samples;Min_cycle;Max_cycle;Signal;HPM_P1;HPM_P2
2022/01/22 00:00:27;;;;;;;152.32;119.22;;;20.50;37.10;;;;;;4700411;59;21116;-33
2022/01/22 00:05:28;;;;;;;153.85;125.10;;;20.50;37.10;;;;;;4699968;59;21071;-30
2022/01/22 00:10:29;;;;;;;153.98;125.35;;;20.50;37.10;;;;;;4707380;55;21014;-29
2022/01/22 00:15:31;;;;;;;152.98;124.07;;;20.50;37.10;;;;;;4723538;55;20992;-37
2022/01/22 00:20:32;;;;;;;149.93;117.13;;;20.50;37.10;;;;;;4700160;59;21105;-30
2022/01/22 00:25:33;;;;;;;143.87;114.20;;;20.50;37.00;;;;;;4723836;55;21509;-30
2022/01/22 00:30:34;;;;;;;141.85;113.50;;;20.40;37.00;;;;;;4724671;55;21075;-32
2022/01/22 00:35:35;;;;;;;148.48;121.00;;;20.40;36.90;;;;;;4723730;55;21492;-30
2022/01/22 00:40:36;;;;;;;143.95;116.43;;;20.40;36.90;;;;;;4723857;55;21090;-31
2022/01/22 00:45:37;;;;;;;149.55;121.20;;;20.40;36.90;;;;;;4708158;55;21525;-31
2022/01/22 00:50:39;;;;;;;144.68;117.55;;;20.40;36.80;;;;;;4705302;55;21007;-34
2022/01/22 00:55:39;;;;;;;141.07;112.07;;;20.40;36.80;;;;;;4709412;55;21007;-33
2022/01/22 01:00:41;;;;;;;141.20;108.45;;;20.40;36.80;;;;;;4700863;59;20999;-32
2022/01/22 01:05:42;;;;;;;146.70;116.97;;;20.40;36.80;;;;;;4751514;55;21087;-31
2022/01/22 01:10:44;;;;;;;144.70;115.97;;;20.40;36.80;;;;;;4746235;55;21015;-34
2022/01/22 01:16:02;;;;;;;139.50;113.40;;;20.40;36.70;;;;;;4701479;55;21565;-32
2022/01/22 01:37:01;;;;;;;141.18;111.57;;;20.30;36.60;;;;;;4700585;55;21095;-35
2022/01/22 01:42:13;;;;;;;138.15;112.12;;;20.30;37.30;;;;;;4709856;55;21560;-36
2022/01/22 01:47:17;;;;;;;140.68;112.57;;;20.30;36.70;;;;;;4710683;55;22110;-37
2022/01/22 01:52:25;;;;;;;139.62;109.90;;;20.30;36.60;;;;;;4723900;55;21070;-35
2022/01/22 01:57:38;;;;;;;135.35;109.97;;;20.30;36.50;;;;;;4702444;55;21067;-31
2022/01/22 02:02:40;;;;;;;137.48;110.35;;;20.30;36.50;;;;;;4729426;55;21608;-37
2022/01/22 02:07:44;;;;;;;136.95;109.80;;;20.30;36.50;;;;;;4714412;55;21051;-37
2022/01/22 02:23:46;;;;;;;129.90;101.72;;;20.30;36.50;;;;;;4699544;55;21565;-33
2022/01/22 02:28:49;;;;;;;132.48;105.37;;;20.30;36.40;;;;;;4720716;55;21678;-36
2022/01/22 02:34:03;;;;;;;125.75;99.75;;;20.30;36.40;;;;;;4700704;59;21576;-36
2022/01/22 02:39:12;;;;;;;133.02;106.37;;;20.30;36.40;;;;;;4711757;55;21485;-37
2022/01/22 02:44:25;;;;;;;133.93;107.10;;;20.20;36.40;;;;;;4721465;55;21597;-33
2022/01/22 02:49:26;;;;;;;126.07;102.65;;;20.20;36.40;;;;;;4704407;55;21537;-36
2022/01/22 02:54:27;;;;;;;128.38;101.00;;;20.20;36.30;;;;;;4782951;55;21011;-35
2022/01/22 02:59:28;;;;;;;125.87;101.97;;;20.20;36.30;;;;;;4721023;55;21081;-35
2022/01/22 03:04:29;;;;;;;127.07;101.00;;;20.20;36.30;;;;;;4718000;55;21023;-36
2022/01/22 03:09:32;;;;;;;124.62;101.07;;;20.20;36.30;;;;;;4700750;59;21103;-36
2022/01/22 03:20:04;;;;;;;119.57;99.13;;;20.20;36.20;;;;;;4700208;55;21107;-33
2022/01/22 03:30:28;;;;;;;121.55;98.30;;;20.20;36.20;;;;;;4701160;55;21032;-33
2022/01/22 03:35:34;;;;;;;122.00;97.43;;;20.20;36.20;;;;;;4733276;55;21071;-34
2022/01/22 03:40:35;;;;;;;123.07;99.47;;;20.20;36.20;;;;;;4700969;59;21581;-35
2022/01/22 03:45:36;;;;;;;117.87;94.95;;;20.20;36.20;;;;;;4776160;55;21067;-37
2022/01/22 03:50:37;;;;;;;122.68;99.05;;;20.20;36.20;;;;;;4701536;55;21162;-37
2022/01/22 03:56:01;;;;;;;119.15;98.37;;;20.20;36.20;;;;;;4700751;59;22217;-33
2022/01/22 04:01:23;;;;;;;120.35;93.60;;;20.20;36.30;;;;;;4725001;55;21521;-35
2022/01/22 04:14:06;;;;;;;118.70;93.75;;;20.20;36.10;;;;;;4743253;55;21620;-43
2022/01/22 04:29:46;;;;;;;115.50;91.12;;;20.10;36.00;;;;;;4700587;55;21103;-34
2022/01/22 04:34:47;;;;;;;119.30;94.62;;;20.10;36.00;;;;;;4710061;55;21091;-37
2022/01/22 04:39:48;;;;;;;114.37;90.78;;;20.10;36.00;;;;;;4709657;55;21011;-36
2022/01/22 04:45:54;;;;;;;115.82;91.45;;;20.10;36.00;;;;;;4725797;55;21035;-35
2022/01/22 04:56:15;;;;;;;112.75;87.90;;;20.10;36.10;;;;;;4701180;55;21529;-32
2022/01/22 05:01:16;;;;;;;112.32;91.57;;;20.10;36.10;;;;;;4719411;55;21011;-35
2022/01/22 05:06:16;;;;;;;108.60;87.43;;;20.10;36.20;;;;;;4699573;59;21003;-32
2022/01/22 05:11:18;;;;;;;106.25;86.85;;;20.10;36.30;;;;;;4705281;55;21091;-35
2022/01/22 05:16:20;;;;;;;106.15;84.97;;;20.10;36.20;;;;;;4711233;55;21472;-36
2022/01/22 05:21:23;;;;;;;107.00;86.95;;;20.10;36.30;;;;;;4709774;55;21096;-31
2022/01/22 05:27:20;;;;;;;105.15;84.45;;;20.10;36.30;;;;;;4740233;55;21146;-33
2022/01/22 05:32:34;;;;;;;103.05;83.32;;;20.00;36.30;;;;;;4700819;55;21719;-32
2022/01/22 05:37:35;;;;;;;106.78;84.85;;;20.00;36.20;;;;;;4740811;55;21557;-34
2022/01/22 05:42:36;;;;;;;107.57;87.70;;;20.00;36.30;;;;;;4713139;55;21015;-37
2022/01/22 05:47:37;;;;;;;100.32;82.07;;;20.00;36.30;;;;;;4746526;55;21058;-35
2022/01/22 05:52:51;;;;;;;101.53;82.78;;;20.00;36.40;;;;;;4702217;55;21498;-34
2022/01/22 06:03:11;;;;;;;100.62;80.78;;;20.00;36.40;;;;;;4700025;55;21056;-35
2022/01/22 06:08:16;;;;;;;101.25;80.15;;;20.00;36.50;;;;;;4706822;55;21110;-33
2022/01/22 06:13:20;;;;;;;95.03;74.00;;;20.00;36.50;;;;;;4709560;55;21054;-34
2022/01/22 06:18:21;;;;;;;100.22;80.55;;;20.00;36.60;;;;;;4707020;55;21644;-37
2022/01/22 06:23:22;;;;;;;96.55;78.10;;;20.00;36.60;;;;;;4707172;55;21187;-34
2022/01/22 06:28:22;;;;;;;96.15;75.60;;;20.00;36.60;;;;;;4707168;55;21051;-37
2022/01/22 06:33:24;;;;;;;96.03;77.12;;;20.00;36.60;;;;;;4708824;55;21545;-34
2022/01/22 06:38:26;;;;;;;100.57;77.87;;;20.00;36.60;;;;;;4700856;55;21028;-36
2022/01/22 06:43:28;;;;;;;96.32;76.40;;;20.00;36.60;;;;;;4701428;55;21521;-35
2022/01/22 06:48:28;;;;;;;100.28;78.47;;;20.00;36.60;;;;;;4737080;55;21580;-34
2022/01/22 06:53:29;;;;;;;94.10;74.30;;;20.00;36.60;;;;;;4705465;55;21008;-37
2022/01/22 06:58:30;;;;;;;91.87;74.07;;;20.00;36.60;;;;;;4701773;55;21509;-34
2022/01/22 07:03:31;;;;;;;94.47;75.97;;;20.00;36.70;;;;;;4721258;55;21513;-36
2022/01/22 07:08:32;;;;;;;101.62;80.75;;;19.90;36.50;;;;;;4701107;59;21039;-34
2022/01/22 07:13:34;;;;;;;100.05;82.45;;;19.90;36.70;;;;;;4706082;55;21019;-38
2022/01/22 07:18:35;;;;;;;93.75;73.57;;;19.90;36.60;;;;;;4712820;55;21019;-37
2022/01/22 07:24:22;;;;;;;94.85;75.65;;;19.90;36.60;;;;;;4705568;54;21561;-38
2022/01/22 07:29:23;;;;;;;96.45;79.57;;;19.90;36.60;;;;;;4701415;55;21080;-38
2022/01/22 07:34:24;;;;;;;96.68;75.60;;;19.90;36.60;;;;;;4718940;55;21075;-38
2022/01/22 07:39:25;;;;;;;99.40;79.32;;;19.90;36.60;;;;;;4708950;55;21027;-40
2022/01/22 07:44:26;;;;;;;96.18;79.90;;;19.90;36.50;;;;;;4754143;55;21091;-36
2022/01/22 07:49:27;;;;;;;100.82;81.18;;;19.90;36.60;;;;;;4752997;55;21107;-38
2022/01/22 07:54:28;;;;;;;96.32;78.43;;;19.90;36.60;;;;;;4710169;55;21498;-36
2022/01/22 07:59:30;;;;;;;102.53;82.00;;;19.90;36.60;;;;;;4710550;55;21521;-33
2022/01/22 08:04:32;;;;;;;96.72;77.10;;;19.90;36.50;;;;;;4718652;55;21502;-39
2022/01/22 08:09:33;;;;;;;102.18;80.45;;;19.90;36.50;;;;;;4724797;55;21071;-36
2022/01/22 08:14:34;;;;;;;99.05;79.18;;;19.90;36.50;;;;;;4700619;59;21655;-36
2022/01/22 08:19:35;;;;;;;101.53;82.47;;;19.90;36.50;;;;;;4710336;55;21075;-37
2022/01/22 08:24:36;;;;;;;99.13;80.95;;;19.80;36.40;;;;;;4708221;55;21645;-38
2022/01/22 08:29:38;;;;;;;96.32;77.07;;;19.80;36.50;;;;;;4724454;55;21071;-37
2022/01/22 08:39:58;;;;;;;96.93;78.62;;;19.80;36.50;;;;;;4700619;55;21090;-33
2022/01/22 08:44:59;;;;;;;102.20;82.72;;;19.80;36.50;;;;;;4700330;59;21105;-35
2022/01/22 08:50:02;;;;;;;102.68;82.53;;;19.80;36.40;;;;;;4712210;55;21077;-30
2022/01/22 08:55:06;;;;;;;100.95;82.45;;;19.80;36.40;;;;;;4741473;55;21019;-30
2022/01/22 09:00:08;;;;;;;102.87;82.12;;;19.80;36.50;;;;;;4716558;55;21128;-38
2022/01/22 09:05:09;;;;;;;106.80;87.55;;;19.80;36.40;;;;;;4714409;55;20999;-36
2022/01/22 09:10:11;;;;;;;107.25;86.00;;;19.80;36.40;;;;;;4706140;55;21051;-43
2022/01/22 09:15:12;;;;;;;109.28;88.45;;;19.80;36.40;;;;;;4719177;55;21079;-37
2022/01/22 09:20:19;;;;;;;104.60;84.18;;;19.80;36.50;;;;;;4704897;55;21083;-31
2022/01/22 09:25:20;;;;;;;109.32;89.47;;;19.80;36.40;;;;;;4704052;55;21525;-46
2022/01/22 09:30:21;;;;;;;109.57;87.97;;;19.80;37.00;;;;;;4706433;55;21125;-34
2022/01/22 09:35:22;;;;;;;110.60;88.57;;;19.80;36.40;;;;;;4739199;55;21520;-35
2022/01/22 09:40:26;;;;;;;115.95;93.82;;;19.80;36.40;;;;;;4715122;55;21027;-37
2022/01/22 09:45:29;;;;;;;120.03;93.90;;;19.80;36.70;;;;;;4746801;55;21104;-46
2022/01/22 09:50:31;;;;;;;116.65;93.95;;;19.80;36.40;;;;;;4700183;57;21525;-31
2022/01/22 09:55:32;;;;;;;122.78;98.18;;;19.80;36.50;;;;;;4722427;54;21553;-34
2022/01/22 10:00:34;;;;;;;118.37;98.57;;;19.80;36.50;;;;;;4737865;55;21028;-28
2022/01/22 10:05:39;;;;;;;120.80;96.63;;;19.80;36.50;;;;;;4699454;55;21079;-33
2022/01/22 10:10:40;;;;;;;127.72;100.75;;;19.80;36.50;;;;;;4714629;55;21048;-38
2022/01/22 10:15:42;;;;;;;130.27;102.38;;;19.80;36.50;;;;;;4759406;55;21075;-35
2022/01/22 10:20:42;;;;;;;132.73;104.30;;;19.80;36.60;;;;;;4713604;55;21126;-34
2022/01/22 10:25:50;;;;;;;132.70;105.00;;;19.80;36.60;;;;;;4705648;55;21583;-37
2022/01/22 10:31:07;;;;;;;134.27;105.20;;;19.80;36.60;;;;;;4741061;55;21501;-38
2022/01/22 10:36:11;;;;;;;135.27;108.20;;;19.80;36.60;;;;;;4739265;55;21068;-36
2022/01/22 10:41:17;;;;;;;144.75;114.37;;;19.80;36.60;;;;;;4701317;57;21012;-31
2022/01/22 10:46:31;;;;;;;142.90;112.77;;;19.80;36.60;;;;;;4712160;55;21588;-36
2022/01/22 10:51:51;;;;;;;142.15;110.97;;;19.80;36.70;;;;;;4706258;55;21541;-34
2022/01/22 10:56:53;;;;;;;151.00;117.80;;;19.80;36.80;;;;;;4714506;55;21047;-36
2022/01/22 11:01:59;;;;;;;146.00;118.32;;;19.80;36.80;;;;;;4701091;55;21039;-37
2022/01/22 11:07:07;;;;;;;150.05;120.97;;;19.80;36.80;;;;;;4720206;55;21466;-38
2022/01/22 11:12:09;;;;;;;151.95;122.18;;;19.80;36.80;;;;;;4727616;55;21068;-30
2022/01/22 11:17:11;;;;;;;152.20;123.20;;;19.70;37.40;;;;;;4717945;55;21055;-46
2022/01/22 11:22:13;;;;;;;157.95;126.45;;;19.70;36.80;;;;;;4712653;54;21520;-41
2022/01/22 11:27:19;;;;;;;159.37;125.87;;;19.70;36.90;;;;;;4721184;55;21046;-36
2022/01/22 11:32:34;;;;;;;161.48;127.93;;;19.70;36.90;;;;;;4700036;59;21019;-33
2022/01/22 11:37:45;;;;;;;166.48;131.50;;;19.70;36.90;;;;;;4700634;59;21011;-37
2022/01/22 11:43:27;;;;;;;165.88;130.57;;;19.70;36.90;;;;;;4701814;55;21007;-46
2022/01/22 11:48:30;;;;;;;160.12;124.40;;;19.70;37.00;;;;;;4747330;55;21473;-36
2022/01/22 11:53:38;;;;;;;170.02;135.63;;;19.70;37.00;;;;;;4729118;55;21636;-35
2022/01/22 12:05:27;;;;;;;174.73;138.82;;;19.70;37.10;;;;;;4718862;55;21600;-39
2022/01/22 12:10:43;;;;;;;178.15;141.35;;;19.70;37.20;;;;;;4701085;59;21059;-46
2022/01/22 12:15:49;;;;;;;174.80;136.85;;;19.70;37.20;;;;;;4720386;55;21537;-34
2022/01/22 12:26:44;;;;;;;180.77;142.68;;;19.70;37.20;;;;;;4714269;55;21443;-39
2022/01/22 12:32:05;;;;;;;184.35;144.25;;;19.70;37.30;;;;;;4720113;55;21167;-37
2022/01/22 12:37:20;;;;;;;187.02;147.75;;;19.70;37.30;;;;;;4700048;57;21135;-38
2022/01/22 12:42:30;;;;;;;177.23;141.57;;;19.70;37.40;;;;;;4741696;55;21489;-37
2022/01/22 12:47:31;;;;;;;181.98;141.18;;;19.70;38.10;;;;;;4717394;55;22131;-37
2022/01/22 12:52:37;;;;;;;187.37;151.95;;;19.70;37.50;;;;;;4700159;59;21063;-36
2022/01/22 12:57:41;;;;;;;189.13;152.20;;;19.70;37.50;;;;;;4712762;55;21585;-36
2022/01/22 13:02:50;;;;;;;191.12;154.35;;;19.70;37.60;;;;;;4705690;55;21150;-35
2022/01/22 13:07:55;;;;;;;193.05;155.73;;;19.70;37.60;;;;;;4719292;55;21481;-32
2022/01/22 13:12:57;;;;;;;198.13;157.95;;;19.70;37.60;;;;;;4713872;55;21561;-37
2022/01/22 13:18:03;;;;;;;195.43;156.70;;;19.70;37.60;;;;;;4706737;55;21518;-34
2022/01/22 13:23:19;;;;;;;192.52;152.48;;;19.70;37.80;;;;;;4699617;59;21609;-35
2022/01/22 13:28:20;;;;;;;191.07;153.77;;;19.70;37.70;;;;;;4700944;59;21011;-36
2022/01/22 13:34:15;;;;;;;195.57;153.07;;;19.70;37.70;;;;;;4763103;55;22120;-38
2022/01/22 13:39:38;;;;;;;196.35;155.95;;;19.70;37.80;;;;;;4703659;55;21552;-41
2022/01/22 13:50:00;;;;;;;199.73;159.23;;;19.70;37.80;;;;;;4713376;54;21114;-36
2022/01/22 13:55:00;;;;;;;195.98;159.32;;;19.70;37.90;;;;;;4737327;55;21074;-32
2022/01/22 14:00:10;;;;;;;195.43;161.20;;;19.70;38.00;;;;;;4705674;55;21568;-29
2022/01/22 14:05:11;;;;;;;200.73;163.70;;;19.70;37.90;;;;;;4716723;55;22238;-35
2022/01/22 14:10:18;;;;;;;195.35;157.35;;;19.70;37.90;;;;;;4700904;56;21126;-36
2022/01/22 14:15:31;;;;;;;190.30;157.00;;;19.70;38.00;;;;;;4701003;59;21140;-31
2022/01/22 14:20:33;;;;;;;198.00;160.07;;;19.70;38.00;;;;;;4714592;55;21039;-35
2022/01/22 14:26:03;;;;;;;195.70;160.02;;;19.70;38.00;;;;;;4713256;55;21027;-36
2022/01/22 14:32:59;;;;;;;197.20;157.62;;;19.70;38.10;;;;;;4699999;59;21017;-34
2022/01/22 14:38:19;;;;;;;196.05;157.98;;;19.70;38.10;;;;;;4712497;55;21059;-33
2022/01/22 14:48:49;;;;;;;195.85;157.82;;;19.70;38.10;;;;;;4700161;55;21103;-33
2022/01/22 14:53:50;;;;;;;197.95;161.55;;;19.70;38.20;;;;;;4712923;55;21027;-37
2022/01/22 14:58:51;;;;;;;197.77;161.70;;;19.70;38.20;;;;;;4716941;55;21553;-38
2022/01/22 15:03:52;;;;;;;188.35;154.77;;;19.70;38.30;;;;;;4704085;55;21518;-34
2022/01/22 15:08:53;;;;;;;202.05;161.52;;;19.70;38.30;;;;;;4714764;55;21621;-38
2022/01/22 15:13:54;;;;;;;195.55;158.15;;;19.70;38.30;;;;;;4700653;59;21481;-33
2022/01/22 15:19:02;;;;;;;198.55;158.75;;;19.70;38.30;;;;;;4705127;55;21043;-34
2022/01/22 15:24:03;;;;;;;192.25;157.45;;;19.70;38.30;;;;;;4700659;59;21544;-38
2022/01/22 15:29:06;;;;;;;195.87;158.12;;;19.70;38.40;;;;;;4745303;55;21047;-34
2022/01/22 15:34:14;;;;;;;186.18;149.65;;;19.70;38.30;;;;;;4757591;55;21468;-35
2022/01/22 15:39:15;;;;;;;195.32;158.57;;;19.70;38.30;;;;;;4725779;55;21118;-36
2022/01/22 15:44:16;;;;;;;195.23;155.00;;;19.70;38.30;;;;;;4714425;55;21353;-38
2022/01/22 15:49:22;;;;;;;190.50;152.93;;;19.70;38.40;;;;;;4728903;55;21090;-33
2022/01/22 15:54:24;;;;;;;190.73;154.07;;;19.70;38.40;;;;;;4750138;55;21387;-33
2022/01/22 15:59:24;;;;;;;180.55;147.13;;;19.70;38.40;;;;;;4704721;55;21095;-28
2022/01/22 16:04:26;;;;;;;187.27;150.43;;;19.70;38.40;;;;;;4721528;55;21568;-35
2022/01/22 16:09:30;;;;;;;177.52;149.00;;;19.70;38.40;;;;;;4706451;54;21023;-36
2022/01/22 16:14:30;;;;;;;180.02;150.10;;;19.70;38.40;;;;;;4701113;55;21039;-34
2022/01/22 16:19:37;;;;;;;175.15;145.30;;;19.70;38.40;;;;;;4751449;55;21513;-36
2022/01/22 16:24:38;;;;;;;180.82;144.30;;;19.70;38.50;;;;;;4726113;55;21476;-38
2022/01/22 16:29:39;;;;;;;172.23;142.68;;;19.70;38.50;;;;;;4720565;55;21028;-36
2022/01/22 16:34:39;;;;;;;170.12;136.75;;;19.70;38.50;;;;;;4733907;55;21477;-35
2022/01/22 16:39:40;;;;;;;163.87;133.77;;;19.70;38.50;;;;;;4702149;55;21153;-39
2022/01/22 17:01:04;;;;;;;169.60;138.18;;;19.70;38.50;;;;;;4742497;55;21115;-33
2022/01/22 17:06:05;;;;;;;165.90;138.00;;;19.70;39.10;;;;;;4720129;55;21541;-34
2022/01/22 17:11:13;;;;;;;164.23;138.75;;;19.60;38.40;;;;;;4701616;59;21143;-35
2022/01/22 17:16:14;;;;;;;162.00;135.88;;;19.60;38.50;;;;;;4747763;55;21850;-36
2022/01/22 17:21:15;;;;;;;163.98;136.02;;;19.60;38.50;;;;;;4709953;55;21059;-37
2022/01/22 17:26:17;;;;;;;159.90;133.55;;;19.60;38.50;;;;;;4724242;55;21023;-34
2022/01/22 17:31:21;;;;;;;158.30;130.52;;;19.60;38.50;;;;;;4727901;55;21140;-35
2022/01/22 17:36:22;;;;;;;155.48;132.52;;;19.60;38.60;;;;;;4724656;55;21620;-34
2022/01/22 17:41:23;;;;;;;156.18;132.95;;;19.60;38.50;;;;;;4706123;55;21083;-36
2022/01/22 17:46:24;;;;;;;158.15;131.68;;;19.60;38.50;;;;;;4748824;55;21521;-33
2022/01/22 17:51:25;;;;;;;153.80;131.15;;;19.70;38.60;;;;;;4703226;55;21023;-35
2022/01/22 17:56:27;;;;;;;152.62;130.82;;;19.60;38.50;;;;;;4757519;55;21003;-30
2022/01/22 18:01:28;;;;;;;147.70;125.57;;;19.60;38.50;;;;;;4741187;55;21538;-34
2022/01/22 18:06:35;;;;;;;151.93;125.43;;;19.60;38.50;;;;;;4737488;55;21553;-37
2022/01/22 18:11:40;;;;;;;147.45;126.45;;;19.60;38.50;;;;;;4713069;55;21019;-33
2022/01/22 18:16:41;;;;;;;149.43;127.35;;;19.60;38.50;;;;;;4702434;55;21608;-34
2022/01/22 18:21:43;;;;;;;144.85;124.62;;;19.60;38.50;;;;;;4708189;55;21107;-33
2022/01/22 18:26:45;;;;;;;144.05;122.45;;;19.60;38.50;;;;;;4700004;55;21024;-36
2022/01/22 18:31:46;;;;;;;148.27;125.60;;;19.60;38.50;;;;;;4715291;55;21007;-33
2022/01/22 18:36:50;;;;;;;145.70;126.47;;;19.60;38.50;;;;;;4723349;55;21020;-37
2022/01/22 18:41:53;;;;;;;138.65;117.15;;;19.60;38.50;;;;;;4731181;55;21525;-37
2022/01/22 18:46:54;;;;;;;144.20;119.95;;;19.60;38.50;;;;;;4702979;55;21478;-39
2022/01/22 18:52:03;;;;;;;139.07;119.57;;;19.60;38.50;;;;;;4766235;55;21624;-35
2022/01/22 18:57:06;;;;;;;129.45;109.65;;;19.60;38.50;;;;;;4700611;55;21552;-36
2022/01/22 19:02:09;;;;;;;142.90;119.07;;;19.60;38.60;;;;;;4704941;55;21016;-36
2022/01/22 19:07:11;;;;;;;135.35;115.45;;;19.60;38.60;;;;;;4699781;59;22005;-37
2022/01/22 19:12:12;;;;;;;138.23;117.20;;;19.60;38.50;;;;;;4709397;55;21561;-37
2022/01/22 19:17:13;;;;;;;135.15;112.78;;;19.60;38.50;;;;;;4707963;55;21123;-36
2022/01/22 19:22:27;;;;;;;133.05;115.32;;;19.60;38.50;;;;;;4760117;54;21084;-34
2022/01/22 19:28:10;;;;;;;140.55;119.82;;;19.60;39.10;;;;;;4713189;55;21108;-35
2022/01/22 19:33:17;;;;;;;132.15;111.82;;;19.60;38.60;;;;;;4713184;55;21035;-33
2022/01/22 19:38:20;;;;;;;128.87;106.18;;;19.60;38.50;;;;;;4719298;55;21601;-36
2022/01/22 19:43:24;;;;;;;132.85;115.78;;;19.60;38.40;;;;;;4700528;59;21079;-33
2022/01/22 19:48:25;;;;;;;138.15;116.90;;;19.60;38.50;;;;;;4744516;55;21640;-37
2022/01/22 19:53:26;;;;;;;132.50;112.43;;;19.60;38.40;;;;;;4700713;59;21090;-36
2022/01/22 19:58:27;;;;;;;137.98;117.72;;;19.50;38.40;;;;;;4701309;59;21473;-36
2022/01/22 20:03:29;;;;;;;133.30;113.78;;;19.60;38.50;;;;;;4701398;55;21548;-40
2022/01/22 20:08:30;;;;;;;132.27;111.55;;;19.50;38.40;;;;;;4739460;54;21532;-37
2022/01/22 20:13:31;;;;;;;133.15;111.05;;;19.50;38.30;;;;;;4721261;55;22336;-36
2022/01/22 20:18:33;;;;;;;125.20;104.70;;;19.50;38.30;;;;;;4762463;54;21111;-37
2022/01/22 20:23:34;;;;;;;128.45;110.90;;;19.50;38.30;;;;;;4731533;55;21516;-35
2022/01/22 20:28:36;;;;;;;124.40;108.60;;;19.50;38.30;;;;;;4734570;55;21036;-33
2022/01/22 20:33:37;;;;;;;124.50;107.55;;;19.50;38.30;;;;;;4700854;56;21023;-30
2022/01/22 20:38:40;;;;;;;125.60;107.55;;;19.50;38.30;;;;;;4700451;56;21515;-33
2022/01/22 20:43:43;;;;;;;126.45;108.60;;;19.60;38.30;;;;;;4705442;55;21016;-36
2022/01/22 20:48:44;;;;;;;122.18;106.78;;;19.60;38.30;;;;;;4700644;55;21544;-34
2022/01/22 20:53:45;;;;;;;118.72;101.55;;;19.50;38.20;;;;;;4700780;57;21015;-36
2022/01/22 20:58:46;;;;;;;121.18;102.78;;;19.50;38.10;;;;;;4725770;55;21079;-36
2022/01/22 21:03:55;;;;;;;125.65;107.85;;;19.50;38.10;;;;;;4715771;55;21125;-29
2022/01/22 21:08:56;;;;;;;115.60;101.38;;;19.50;38.10;;;;;;4721749;55;21557;-27
2022/01/22 21:14:01;;;;;;;116.50;100.80;;;19.50;38.10;;;;;;4734393;55;21043;-34
2022/01/22 21:19:03;;;;;;;120.85;103.25;;;19.50;38.00;;;;;;4741384;55;21118;-36
2022/01/22 21:24:05;;;;;;;114.82;100.10;;;19.50;38.00;;;;;;4714330;55;21012;-36
2022/01/22 21:29:05;;;;;;;115.20;99.28;;;19.50;38.00;;;;;;4724110;55;21497;-29
2022/01/22 21:34:08;;;;;;;111.53;97.07;;;19.50;37.90;;;;;;4723279;55;21019;-30
2022/01/22 21:39:42;;;;;;;112.60;98.43;;;19.50;37.90;;;;;;4722080;55;21071;-33
2022/01/22 21:44:43;;;;;;;107.90;95.80;;;19.50;37.90;;;;;;4708216;55;21218;-35
2022/01/22 21:49:45;;;;;;;111.88;96.32;;;19.50;37.90;;;;;;4744827;55;21050;-36
2022/01/22 21:54:46;;;;;;;109.57;96.10;;;19.50;37.80;;;;;;4716705;55;20999;-28
2022/01/22 21:59:46;;;;;;;100.07;86.28;;;19.50;37.80;;;;;;4719932;55;21091;-34
2022/01/22 22:04:48;;;;;;;103.95;92.53;;;19.50;37.80;;;;;;4739761;55;21079;-35
2022/01/22 22:09:49;;;;;;;103.07;87.30;;;19.50;37.80;;;;;;4728760;55;21612;-35
2022/01/22 22:14:54;;;;;;;105.65;91.25;;;19.50;37.70;;;;;;4733197;55;21160;-34
2022/01/22 22:19:55;;;;;;;102.90;89.62;;;19.50;38.40;;;;;;4708532;55;21573;-36
2022/01/22 22:24:56;;;;;;;101.32;88.62;;;19.50;37.70;;;;;;4754917;55;21052;-35
2022/01/22 22:29:56;;;;;;;98.65;86.32;;;19.50;37.60;;;;;;4715079;55;21517;-32
2022/01/22 22:34:57;;;;;;;97.57;84.03;;;19.50;37.60;;;;;;4721668;55;21107;-37
2022/01/22 22:39:58;;;;;;;94.57;82.88;;;19.50;37.60;;;;;;4700057;56;21019;-33
2022/01/22 22:44:59;;;;;;;95.72;82.47;;;19.50;37.50;;;;;;4715417;55;21167;-37
2022/01/22 22:50:01;;;;;;;93.50;82.55;;;19.40;37.40;;;;;;4700696;59;21505;-42
2022/01/22 22:55:03;;;;;;;92.82;80.15;;;19.50;37.50;;;;;;4710865;55;21564;-37
2022/01/22 23:00:26;;;;;;;95.28;82.22;;;19.40;37.40;;;;;;4700812;56;21003;-36
2022/01/22 23:05:28;;;;;;;93.43;79.18;;;19.40;37.40;;;;;;4699709;57;21573;-36
2022/01/22 23:10:29;;;;;;;87.32;74.90;;;19.50;37.50;;;;;;4712269;55;21023;-37
2022/01/22 23:15:30;;;;;;;88.25;76.15;;;19.40;37.30;;;;;;4704784;55;21549;-38
2022/01/22 23:25:55;;;;;;;88.97;78.07;;;19.40;37.30;;;;;;4699743;55;21146;-32
2022/01/22 23:30:56;;;;;;;85.90;75.93;;;19.40;37.30;;;;;;4719010;55;21040;-39
2022/01/22 23:54:15;;;;;;;81.87;72.18;;;19.40;37.20;;;;;;4700787;59;22336;-28
2022/01/22 23:59:32;;;;;;;82.40;72.22;;;19.40;37.20;;;;;;4739134;55;21490;-35
